sensor_id;sensor_type;location;lat;lon;timestamp;temperature;humidity
68977;SHT31;56029;52.568;13.588;2024-03-06T00:01:49;2.93;97.92
68977;SHT31;56029;52.568;13.588;2024-03-06T00:04:14;2.83;98.08
68977;SHT31;56029;52.568;13.588;2024-03-06T00:06:40;2.81;97.98
68977;SHT31;56029;52.568;13.588;2024-03-06T00:09:06;2.76;98.00
68977;SHT31;56029;52.568;13.588;2024-03-06T00:11:31;2.70;98.06
68977;SHT31;56029;52.568;13.588;2024-03-06T00:13:57;2.64;98.06
68977;SHT31;56029;52.568;13.588;2024-03-06T00:16:22;2.59;98.17
68977;SHT31;56029;52.568;13.588;2024-03-06T00:18:48;2.54;98.30
68977;SHT31;56029;52.568;13.588;2024-03-06T00:21:14;2.48;98.31
68977;SHT31;56029;52.568;13.588;2024-03-06T00:23:39;2.43;98.40
68977;SHT31;56029;52.568;13.588;2024-03-06T00:26:05;2.33;98.48
68977;SHT31;56029;52.568;13.588;2024-03-06T00:28:30;2.26;98.65
68977;SHT31;56029;52.568;13.588;2024-03-06T00:30:56;2.21;98.78
68977;SHT31;56029;52.568;13.588;2024-03-06T00:33:22;2.12;98.82
68977;SHT31;56029;52.568;13.588;2024-03-06T00:35:47;2.04;98.95
68977;SHT31;56029;52.568;13.588;2024-03-06T00:38:13;1.97;98.91
68977;SHT31;56029;52.568;13.588;2024-03-06T00:40:39;1.90;98.93
68977;SHT31;56029;52.568;13.588;2024-03-06T00:43:04;1.81;99.00
68977;SHT31;56029;52.568;13.588;2024-03-06T00:45:30;1.77;98.82
68977;SHT31;56029;52.568;13.588;2024-03-06T00:47:55;1.68;98.92
68977;SHT31;56029;52.568;13.588;2024-03-06T00:50:21;1.63;98.84
68977;SHT31;56029;52.568;13.588;2024-03-06T00:52:47;1.53;98.99
68977;SHT31;56029;52.568;13.588;2024-03-06T00:55:12;1.47;98.92
68977;SHT31;56029;52.568;13.588;2024-03-06T00:57:38;1.44;99.05
68977;SHT31;56029;52.568;13.588;2024-03-06T01:00:04;1.36;99.35
68977;SHT31;56029;52.568;13.588;2024-03-06T01:02:30;1.28;99.51
68977;SHT31;56029;52.568;13.588;2024-03-06T01:04:55;1.23;99.40
68977;SHT31;56029;52.568;13.588;2024-03-06T01:07:21;1.16;99.62
68977;SHT31;56029;52.568;13.588;2024-03-06T01:09:47;1.09;99.70
68977;SHT31;56029;52.568;13.588;2024-03-06T01:12:12;1.05;99.77
68977;SHT31;56029;52.568;13.588;2024-03-06T01:14:38;0.99;99.92
68977;SHT31;56029;52.568;13.588;2024-03-06T01:17:03;0.95;99.91
68977;SHT31;56029;52.568;13.588;2024-03-06T01:19:29;0.92;99.99
68977;SHT31;56029;52.568;13.588;2024-03-06T01:21:54;0.91;99.99
68977;SHT31;56029;52.568;13.588;2024-03-06T01:24:20;0.84;99.99
68977;SHT31;56029;52.568;13.588;2024-03-06T01:26:45;0.75;99.92
68977;SHT31;56029;52.568;13.588;2024-03-06T01:29:11;0.74;99.99
68977;SHT31;56029;52.568;13.588;2024-03-06T01:31:37;0.67;99.99
68977;SHT31;56029;52.568;13.588;2024-03-06T01:34:02;0.64;99.99
68977;SHT31;56029;52.568;13.588;2024-03-06T01:36:28;0.61;99.99
68977;SHT31;56029;52.568;13.588;2024-03-06T01:38:53;0.54;99.99
68977;SHT31;56029;52.568;13.588;2024-03-06T01:41:19;0.54;99.99
68977;SHT31;56029;52.568;13.588;2024-03-06T01:43:45;0.52;99.99
68977;SHT31;56029;52.568;13.588;2024-03-06T01:46:10;0.47;99.99
68977;SHT31;56029;52.568;13.588;2024-03-06T01:48:36;0.40;99.99
68977;SHT31;56029;52.568;13.588;2024-03-06T01:51:02;0.36;99.99
68977;SHT31;56029;52.568;13.588;2024-03-06T01:53:29;0.26;99.99
68977;SHT31;56029;52.568;13.588;2024-03-06T01:55:55;0.19;99.99
68977;SHT31;56029;52.568;13.588;2024-03-06T01:58:20;0.16;99.99
68977;SHT31;56029;52.568;13.588;2024-03-06T02:00:46;0.13;99.99
68977;SHT31;56029;52.568;13.588;2024-03-06T02:03:13;0.09;99.99
68977;SHT31;56029;52.568;13.588;2024-03-06T02:05:38;0.05;99.99
68977;SHT31;56029;52.568;13.588;2024-03-06T02:08:04;0.03;99.99
68977;SHT31;56029;52.568;13.588;2024-03-06T02:10:31;0.01;99.99
68977;SHT31;56029;52.568;13.588;2024-03-06T02:12:57;-0.05;99.99
68977;SHT31;56029;52.568;13.588;2024-03-06T02:15:23;-0.14;99.99
68977;SHT31;56029;52.568;13.588;2024-03-06T02:17:49;-0.14;99.99
68977;SHT31;56029;52.568;13.588;2024-03-06T02:20:14;-0.15;99.99
68977;SHT31;56029;52.568;13.588;2024-03-06T02:22:40;-0.15;99.99
68977;SHT31;56029;52.568;13.588;2024-03-06T02:25:06;-0.16;99.99
68977;SHT31;56029;52.568;13.588;2024-03-06T02:27:32;-0.16;99.99
68977;SHT31;56029;52.568;13.588;2024-03-06T02:29:58;-0.18;99.99
68977;SHT31;56029;52.568;13.588;2024-03-06T02:32:24;-0.25;99.99
68977;SHT31;56029;52.568;13.588;2024-03-06T02:34:50;-0.26;99.99
68977;SHT31;56029;52.568;13.588;2024-03-06T02:37:15;-0.33;99.99
68977;SHT31;56029;52.568;13.588;2024-03-06T02:39:41;-0.46;99.99
68977;SHT31;56029;52.568;13.588;2024-03-06T02:42:07;-0.54;99.99
68977;SHT31;56029;52.568;13.588;2024-03-06T02:44:32;-0.57;99.99
68977;SHT31;56029;52.568;13.588;2024-03-06T02:46:59;-0.54;99.99
68977;SHT31;56029;52.568;13.588;2024-03-06T02:49:24;-0.56;99.99
68977;SHT31;56029;52.568;13.588;2024-03-06T02:51:50;-0.54;99.99
68977;SHT31;56029;52.568;13.588;2024-03-06T02:54:16;-0.52;99.99
68977;SHT31;56029;52.568;13.588;2024-03-06T02:56:41;-0.52;99.99
68977;SHT31;56029;52.568;13.588;2024-03-06T02:59:07;-0.56;99.99
68977;SHT31;56029;52.568;13.588;2024-03-06T03:01:33;-0.60;99.99
68977;SHT31;56029;52.568;13.588;2024-03-06T03:03:58;-0.64;99.99
68977;SHT31;56029;52.568;13.588;2024-03-06T03:06:24;-0.64;99.99
68977;SHT31;56029;52.568;13.588;2024-03-06T03:08:49;-0.67;99.99
68977;SHT31;56029;52.568;13.588;2024-03-06T03:11:15;-0.70;99.99
68977;SHT31;56029;52.568;13.588;2024-03-06T03:13:40;-0.73;99.99
68977;SHT31;56029;52.568;13.588;2024-03-06T03:16:06;-0.77;99.99
68977;SHT31;56029;52.568;13.588;2024-03-06T03:18:31;-0.81;99.99
68977;SHT31;56029;52.568;13.588;2024-03-06T03:20:57;-0.91;99.99
68977;SHT31;56029;52.568;13.588;2024-03-06T03:23:23;-0.97;99.99
68977;SHT31;56029;52.568;13.588;2024-03-06T03:25:48;-0.98;99.99
68977;SHT31;56029;52.568;13.588;2024-03-06T03:28:14;-1.08;99.99
68977;SHT31;56029;52.568;13.588;2024-03-06T03:30:42;-1.11;99.99
68977;SHT31;56029;52.568;13.588;2024-03-06T03:33:08;-1.14;99.99
68977;SHT31;56029;52.568;13.588;2024-03-06T03:35:33;-1.14;99.99
68977;SHT31;56029;52.568;13.588;2024-03-06T03:37:59;-1.14;99.99
68977;SHT31;56029;52.568;13.588;2024-03-06T03:40:24;-1.16;99.99
68977;SHT31;56029;52.568;13.588;2024-03-06T03:42:50;-1.15;99.99
68977;SHT31;56029;52.568;13.588;2024-03-06T03:45:15;-1.16;99.99
68977;SHT31;56029;52.568;13.588;2024-03-06T03:47:42;-1.15;99.99
68977;SHT31;56029;52.568;13.588;2024-03-06T03:50:09;-1.12;99.99
68977;SHT31;56029;52.568;13.588;2024-03-06T03:52:34;-1.14;99.99
68977;SHT31;56029;52.568;13.588;2024-03-06T03:55:00;-1.12;99.99
68977;SHT31;56029;52.568;13.588;2024-03-06T03:57:26;-1.16;99.99
68977;SHT31;56029;52.568;13.588;2024-03-06T03:59:51;-1.22;99.99
68977;SHT31;56029;52.568;13.588;2024-03-06T04:02:17;-1.22;99.99
68977;SHT31;56029;52.568;13.588;2024-03-06T04:04:43;-1.22;99.99
68977;SHT31;56029;52.568;13.588;2024-03-06T04:07:08;-1.18;99.99
68977;SHT31;56029;52.568;13.588;2024-03-06T04:09:34;-1.14;99.99
68977;SHT31;56029;52.568;13.588;2024-03-06T04:11:59;-1.11;99.99
68977;SHT31;56029;52.568;13.588;2024-03-06T04:14:25;-1.11;99.99
68977;SHT31;56029;52.568;13.588;2024-03-06T04:16:50;-1.12;99.99
68977;SHT31;56029;52.568;13.588;2024-03-06T04:19:16;-1.14;99.99
68977;SHT31;56029;52.568;13.588;2024-03-06T04:21:42;-1.15;99.99
68977;SHT31;56029;52.568;13.588;2024-03-06T04:24:07;-1.15;99.99
68977;SHT31;56029;52.568;13.588;2024-03-06T04:26:33;-1.18;99.99
68977;SHT31;56029;52.568;13.588;2024-03-06T04:28:59;-1.24;99.99
68977;SHT31;56029;52.568;13.588;2024-03-06T04:31:24;-1.27;99.99
68977;SHT31;56029;52.568;13.588;2024-03-06T04:33:50;-1.38;99.99
68977;SHT31;56029;52.568;13.588;2024-03-06T04:36:15;-1.46;99.99
68977;SHT31;56029;52.568;13.588;2024-03-06T04:38:41;-1.53;99.99
68977;SHT31;56029;52.568;13.588;2024-03-06T04:41:06;-1.59;99.99
68977;SHT31;56029;52.568;13.588;2024-03-06T04:43:32;-1.66;99.99
68977;SHT31;56029;52.568;13.588;2024-03-06T04:45:57;-1.72;99.99
68977;SHT31;56029;52.568;13.588;2024-03-06T04:48:23;-1.74;99.99
68977;SHT31;56029;52.568;13.588;2024-03-06T04:50:49;-1.73;99.99
68977;SHT31;56029;52.568;13.588;2024-03-06T04:53:15;-1.74;99.99
68977;SHT31;56029;52.568;13.588;2024-03-06T04:55:40;-1.77;99.99
68977;SHT31;56029;52.568;13.588;2024-03-06T04:58:06;-1.77;99.99
68977;SHT31;56029;52.568;13.588;2024-03-06T05:00:32;-1.76;99.99
68977;SHT31;56029;52.568;13.588;2024-03-06T05:02:58;-1.74;99.99
68977;SHT31;56029;52.568;13.588;2024-03-06T05:05:24;-1.70;99.99
68977;SHT31;56029;52.568;13.588;2024-03-06T05:07:50;-1.70;99.99
68977;SHT31;56029;52.568;13.588;2024-03-06T05:10:15;-1.67;99.99
68977;SHT31;56029;52.568;13.588;2024-03-06T05:12:41;-1.64;99.99
68977;SHT31;56029;52.568;13.588;2024-03-06T05:15:08;-1.66;99.99
68977;SHT31;56029;52.568;13.588;2024-03-06T05:17:34;-1.66;99.99
68977;SHT31;56029;52.568;13.588;2024-03-06T05:19:59;-1.64;99.99
68977;SHT31;56029;52.568;13.588;2024-03-06T05:22:25;-1.62;99.99
68977;SHT31;56029;52.568;13.588;2024-03-06T05:24:50;-1.62;99.99
68977;SHT31;56029;52.568;13.588;2024-03-06T05:27:16;-1.62;99.99
68977;SHT31;56029;52.568;13.588;2024-03-06T05:29:42;-1.59;99.99
68977;SHT31;56029;52.568;13.588;2024-03-06T05:32:08;-1.59;99.99
68977;SHT31;56029;52.568;13.588;2024-03-06T05:34:34;-1.60;99.99
68977;SHT31;56029;52.568;13.588;2024-03-06T05:37:00;-1.58;99.99
68977;SHT31;56029;52.568;13.588;2024-03-06T05:39:25;-1.63;99.99
68977;SHT31;56029;52.568;13.588;2024-03-06T05:41:51;-1.45;99.99
68977;SHT31;56029;52.568;13.588;2024-03-06T05:44:17;-1.51;99.99
68977;SHT31;56029;52.568;13.588;2024-03-06T05:46:42;-1.52;99.99
68977;SHT31;56029;52.568;13.588;2024-03-06T05:49:08;-1.48;99.99
68977;SHT31;56029;52.568;13.588;2024-03-06T05:51:34;-1.42;99.99
68977;SHT31;56029;52.568;13.588;2024-03-06T05:53:59;-1.41;99.99
68977;SHT31;56029;52.568;13.588;2024-03-06T05:56:25;-1.42;99.99
68977;SHT31;56029;52.568;13.588;2024-03-06T05:58:50;-1.38;99.99
68977;SHT31;56029;52.568;13.588;2024-03-06T06:01:16;-1.34;99.99
68977;SHT31;56029;52.568;13.588;2024-03-06T06:03:41;-1.39;99.99
68977;SHT31;56029;52.568;13.588;2024-03-06T06:06:07;-1.39;99.99
68977;SHT31;56029;52.568;13.588;2024-03-06T06:08:33;-1.45;99.99
68977;SHT31;56029;52.568;13.588;2024-03-06T06:10:58;-1.42;99.99
68977;SHT31;56029;52.568;13.588;2024-03-06T06:13:24;-1.45;99.99
68977;SHT31;56029;52.568;13.588;2024-03-06T06:15:50;-1.42;99.99
68977;SHT31;56029;52.568;13.588;2024-03-06T06:18:15;-1.39;99.99
68977;SHT31;56029;52.568;13.588;2024-03-06T06:20:41;-1.41;99.99
68977;SHT31;56029;52.568;13.588;2024-03-06T06:23:06;-1.36;99.99
68977;SHT31;56029;52.568;13.588;2024-03-06T06:25:32;-1.31;99.99
68977;SHT31;56029;52.568;13.588;2024-03-06T06:27:58;-1.28;99.99
68977;SHT31;56029;52.568;13.588;2024-03-06T06:30:23;-1.24;99.99
68977;SHT31;56029;52.568;13.588;2024-03-06T06:32:49;-1.18;99.99
68977;SHT31;56029;52.568;13.588;2024-03-06T06:35:15;-1.11;99.99
68977;SHT31;56029;52.568;13.588;2024-03-06T06:37:40;-1.03;99.99
68977;SHT31;56029;52.568;13.588;2024-03-06T06:40:07;-0.94;99.99
68977;SHT31;56029;52.568;13.588;2024-03-06T06:42:34;-0.80;99.99
68977;SHT31;56029;52.568;13.588;2024-03-06T06:45:00;-0.74;99.99
68977;SHT31;56029;52.568;13.588;2024-03-06T06:47:25;-0.72;99.99
68977;SHT31;56029;52.568;13.588;2024-03-06T06:49:51;-0.72;99.99
68977;SHT31;56029;52.568;13.588;2024-03-06T06:52:17;-0.67;99.99
68977;SHT31;56029;52.568;13.588;2024-03-06T06:54:42;-0.62;99.99
68977;SHT31;56029;52.568;13.588;2024-03-06T06:57:08;-0.49;99.99
68977;SHT31;56029;52.568;13.588;2024-03-06T06:59:34;-0.45;99.99
68977;SHT31;56029;52.568;13.588;2024-03-06T07:01:59;-0.35;99.99
68977;SHT31;56029;52.568;13.588;2024-03-06T07:04:25;-0.21;99.99
68977;SHT31;56029;52.568;13.588;2024-03-06T07:06:51;-0.09;99.99
68977;SHT31;56029;52.568;13.588;2024-03-06T07:09:16;-0.02;99.99
68977;SHT31;56029;52.568;13.588;2024-03-06T07:11:42;0.09;99.99
68977;SHT31;56029;52.568;13.588;2024-03-06T07:14:08;0.20;99.99
68977;SHT31;56029;52.568;13.588;2024-03-06T07:16:33;0.34;99.99
68977;SHT31;56029;52.568;13.588;2024-03-06T07:18:59;0.43;99.99
68977;SHT31;56029;52.568;13.588;2024-03-06T07:21:24;0.49;99.99
68977;SHT31;56029;52.568;13.588;2024-03-06T07:23:50;0.58;99.99
68977;SHT31;56029;52.568;13.588;2024-03-06T07:26:15;0.64;99.99
68977;SHT31;56029;52.568;13.588;2024-03-06T07:28:41;0.78;99.99
68977;SHT31;56029;52.568;13.588;2024-03-06T07:31:07;0.95;99.99
68977;SHT31;56029;52.568;13.588;2024-03-06T07:33:32;1.06;99.99
68977;SHT31;56029;52.568;13.588;2024-03-06T07:35:58;1.12;99.99
68977;SHT31;56029;52.568;13.588;2024-03-06T07:38:23;1.19;99.99
68977;SHT31;56029;52.568;13.588;2024-03-06T07:40:49;1.33;99.99
68977;SHT31;56029;52.568;13.588;2024-03-06T07:43:15;1.50;99.99
68977;SHT31;56029;52.568;13.588;2024-03-06T07:45:40;1.56;99.99
68977;SHT31;56029;52.568;13.588;2024-03-06T07:48:06;1.71;99.99
68977;SHT31;56029;52.568;13.588;2024-03-06T07:50:31;1.83;99.99
68977;SHT31;56029;52.568;13.588;2024-03-06T07:52:57;1.91;99.99
68977;SHT31;56029;52.568;13.588;2024-03-06T07:55:23;2.04;99.99
68977;SHT31;56029;52.568;13.588;2024-03-06T07:57:48;2.11;99.99
68977;SHT31;56029;52.568;13.588;2024-03-06T08:00:14;2.26;99.99
68977;SHT31;56029;52.568;13.588;2024-03-06T08:02:41;2.32;99.99
68977;SHT31;56029;52.568;13.588;2024-03-06T08:05:06;2.49;99.99
68977;SHT31;56029;52.568;13.588;2024-03-06T08:07:31;2.62;99.99
68977;SHT31;56029;52.568;13.588;2024-03-06T08:09:57;2.67;99.60
68977;SHT31;56029;52.568;13.588;2024-03-06T08:12:23;2.75;99.41
68977;SHT31;56029;52.568;13.588;2024-03-06T08:14:48;2.75;99.70
68977;SHT31;56029;52.568;13.588;2024-03-06T08:17:14;2.89;99.74
68977;SHT31;56029;52.568;13.588;2024-03-06T08:19:39;2.90;99.80
68977;SHT31;56029;52.568;13.588;2024-03-06T08:22:05;3.04;99.41
68977;SHT31;56029;52.568;13.588;2024-03-06T08:24:30;3.18;99.05
68977;SHT31;56029;52.568;13.588;2024-03-06T08:26:56;3.27;98.99
68977;SHT31;56029;52.568;13.588;2024-03-06T08:29:21;3.31;99.20
68977;SHT31;56029;52.568;13.588;2024-03-06T08:31:47;3.41;99.16
68977;SHT31;56029;52.568;13.588;2024-03-06T08:34:12;3.68;96.73
68977;SHT31;56029;52.568;13.588;2024-03-06T08:36:38;3.72;96.03
68977;SHT31;56029;52.568;13.588;2024-03-06T08:39:04;3.94;96.10
68977;SHT31;56029;52.568;13.588;2024-03-06T08:41:29;4.14;95.04
68977;SHT31;56029;52.568;13.588;2024-03-06T08:43:54;4.16;94.42
68977;SHT31;56029;52.568;13.588;2024-03-06T08:46:20;4.20;94.11
68977;SHT31;56029;52.568;13.588;2024-03-06T08:48:46;4.24;94.16
68977;SHT31;56029;52.568;13.588;2024-03-06T08:51:11;4.21;93.88
68977;SHT31;56029;52.568;13.588;2024-03-06T08:53:37;4.33;94.42
68977;SHT31;56029;52.568;13.588;2024-03-06T08:56:03;4.33;93.24
68977;SHT31;56029;52.568;13.588;2024-03-06T08:58:28;4.25;92.88
68977;SHT31;56029;52.568;13.588;2024-03-06T09:00:54;4.30;93.69
68977;SHT31;56029;52.568;13.588;2024-03-06T09:03:19;4.24;93.13
68977;SHT31;56029;52.568;13.588;2024-03-06T09:05:45;4.37;92.80
68977;SHT31;56029;52.568;13.588;2024-03-06T09:08:10;4.65;92.44
68977;SHT31;56029;52.568;13.588;2024-03-06T09:10:36;4.69;91.71
68977;SHT31;56029;52.568;13.588;2024-03-06T09:13:01;4.68;91.74
68977;SHT31;56029;52.568;13.588;2024-03-06T09:15:27;4.65;91.72
68977;SHT31;56029;52.568;13.588;2024-03-06T09:17:52;4.58;91.71
68977;SHT31;56029;52.568;13.588;2024-03-06T09:20:18;4.58;92.23
68977;SHT31;56029;52.568;13.588;2024-03-06T09:22:44;4.59;92.27
68977;SHT31;56029;52.568;13.588;2024-03-06T09:25:10;4.68;92.24
68977;SHT31;56029;52.568;13.588;2024-03-06T09:27:36;4.71;92.16
68977;SHT31;56029;52.568;13.588;2024-03-06T09:30:03;4.80;92.38
68977;SHT31;56029;52.568;13.588;2024-03-06T09:32:28;4.73;91.87
68977;SHT31;56029;52.568;13.588;2024-03-06T09:34:54;4.73;92.02
68977;SHT31;56029;52.568;13.588;2024-03-06T09:37:19;4.76;92.10
68977;SHT31;56029;52.568;13.588;2024-03-06T09:39:45;4.87;91.77
68977;SHT31;56029;52.568;13.588;2024-03-06T09:42:10;4.96;92.02
68977;SHT31;56029;52.568;13.588;2024-03-06T09:44:36;4.97;91.31
68977;SHT31;56029;52.568;13.588;2024-03-06T09:47:03;5.17;90.19
68977;SHT31;56029;52.568;13.588;2024-03-06T09:49:29;5.20;89.48
68977;SHT31;56029;52.568;13.588;2024-03-06T09:51:55;5.24;89.49
68977;SHT31;56029;52.568;13.588;2024-03-06T09:54:22;5.37;89.22
68977;SHT31;56029;52.568;13.588;2024-03-06T09:56:48;5.41;88.90
68977;SHT31;56029;52.568;13.588;2024-03-06T09:59:14;5.62;87.65
68977;SHT31;56029;52.568;13.588;2024-03-06T10:01:49;5.84;87.95
68977;SHT31;56029;52.568;13.588;2024-03-06T10:04:19;6.07;86.06
68977;SHT31;56029;52.568;13.588;2024-03-06T10:06:45;6.41;85.90
68977;SHT31;56029;52.568;13.588;2024-03-06T10:09:11;6.37;84.40
68977;SHT31;56029;52.568;13.588;2024-03-06T10:11:40;6.38;84.84
68977;SHT31;56029;52.568;13.588;2024-03-06T10:14:06;6.37;84.62
68977;SHT31;56029;52.568;13.588;2024-03-06T10:16:31;6.55;86.36
68977;SHT31;56029;52.568;13.588;2024-03-06T10:18:57;6.06;86.16
68977;SHT31;56029;52.568;13.588;2024-03-06T10:21:31;5.99;86.57
68977;SHT31;56029;52.568;13.588;2024-03-06T10:23:57;6.03;86.95
68977;SHT31;56029;52.568;13.588;2024-03-06T10:26:24;6.06;86.78
68977;SHT31;56029;52.568;13.588;2024-03-06T10:28:50;6.27;86.43
68977;SHT31;56029;52.568;13.588;2024-03-06T10:31:26;6.36;85.19
68977;SHT31;56029;52.568;13.588;2024-03-06T10:33:52;6.33;85.49
68977;SHT31;56029;52.568;13.588;2024-03-06T10:36:18;6.29;85.27
68977;SHT31;56029;52.568;13.588;2024-03-06T10:38:43;6.34;86.05
68977;SHT31;56029;52.568;13.588;2024-03-06T10:41:09;6.40;86.32
68977;SHT31;56029;52.568;13.588;2024-03-06T10:43:36;6.50;86.22
68977;SHT31;56029;52.568;13.588;2024-03-06T10:46:06;6.41;84.48
68977;SHT31;56029;52.568;13.588;2024-03-06T10:48:32;6.58;85.23
68977;SHT31;56029;52.568;13.588;2024-03-06T10:50:59;6.81;85.36
68977;SHT31;56029;52.568;13.588;2024-03-06T10:53:25;6.48;84.89
68977;SHT31;56029;52.568;13.588;2024-03-06T10:55:51;6.51;85.23
68977;SHT31;56029;52.568;13.588;2024-03-06T10:58:18;6.36;85.07
68977;SHT31;56029;52.568;13.588;2024-03-06T11:00:46;6.27;84.81
68977;SHT31;56029;52.568;13.588;2024-03-06T11:03:12;6.43;83.20
68977;SHT31;56029;52.568;13.588;2024-03-06T11:05:39;6.50;81.35
68977;SHT31;56029;52.568;13.588;2024-03-06T11:08:12;6.73;82.51
68977;SHT31;56029;52.568;13.588;2024-03-06T11:10:39;6.74;82.20
68977;SHT31;56029;52.568;13.588;2024-03-06T11:13:30;6.75;82.13
68977;SHT31;56029;52.568;13.588;2024-03-06T11:15:57;6.55;81.08
68977;SHT31;56029;52.568;13.588;2024-03-06T11:23:30;6.96;80.19
68977;SHT31;56029;52.568;13.588;2024-03-06T11:25:59;6.80;79.49
68977;SHT31;56029;52.568;13.588;2024-03-06T11:28:26;7.09;78.99
68977;SHT31;56029;52.568;13.588;2024-03-06T11:31:05;7.19;77.67
68977;SHT31;56029;52.568;13.588;2024-03-06T11:33:42;7.39;77.13
68977;SHT31;56029;52.568;13.588;2024-03-06T11:36:27;7.40;78.28
68977;SHT31;56029;52.568;13.588;2024-03-06T11:38:56;7.39;79.41
68977;SHT31;56029;52.568;13.588;2024-03-06T11:41:22;7.75;80.99
68977;SHT31;56029;52.568;13.588;2024-03-06T11:43:48;7.74;80.03
68977;SHT31;56029;52.568;13.588;2024-03-06T11:46:14;7.94;78.80
68977;SHT31;56029;52.568;13.588;2024-03-06T11:49:04;7.95;78.72
68977;SHT31;56029;52.568;13.588;2024-03-06T11:51:30;7.98;79.30
68977;SHT31;56029;52.568;13.588;2024-03-06T11:53:56;8.08;77.12
68977;SHT31;56029;52.568;13.588;2024-03-06T11:56:21;7.95;76.43
68977;SHT31;56029;52.568;13.588;2024-03-06T11:58:47;7.84;74.78
68977;SHT31;56029;52.568;13.588;2024-03-06T12:01:14;7.84;75.71
68977;SHT31;56029;52.568;13.588;2024-03-06T12:03:40;7.73;77.53
68977;SHT31;56029;52.568;13.588;2024-03-06T12:06:06;7.64;79.50
68977;SHT31;56029;52.568;13.588;2024-03-06T12:08:33;7.64;77.41
68977;SHT31;56029;52.568;13.588;2024-03-06T12:10:58;7.82;77.91
68977;SHT31;56029;52.568;13.588;2024-03-06T12:13:24;7.87;77.77
68977;SHT31;56029;52.568;13.588;2024-03-06T12:15:50;7.75;77.98
68977;SHT31;56029;52.568;13.588;2024-03-06T12:18:18;7.85;78.24
68977;SHT31;56029;52.568;13.588;2024-03-06T12:20:44;7.81;78.94
68977;SHT31;56029;52.568;13.588;2024-03-06T12:23:09;7.64;79.45
68977;SHT31;56029;52.568;13.588;2024-03-06T12:25:35;7.49;80.69
68977;SHT31;56029;52.568;13.588;2024-03-06T12:28:06;7.46;80.99
68977;SHT31;56029;52.568;13.588;2024-03-06T12:30:40;7.32;80.87
68977;SHT31;56029;52.568;13.588;2024-03-06T12:33:06;7.20;80.41
68977;SHT31;56029;52.568;13.588;2024-03-06T12:35:31;7.09;78.03
68977;SHT31;56029;52.568;13.588;2024-03-06T12:37:57;7.30;77.36
68977;SHT31;56029;52.568;13.588;2024-03-06T12:40:24;7.57;76.21
68977;SHT31;56029;52.568;13.588;2024-03-06T12:42:49;7.80;77.36
68977;SHT31;56029;52.568;13.588;2024-03-06T12:45:15;7.92;75.06
68977;SHT31;56029;52.568;13.588;2024-03-06T12:47:42;7.84;75.54
68977;SHT31;56029;52.568;13.588;2024-03-06T12:50:08;7.64;75.75
68977;SHT31;56029;52.568;13.588;2024-03-06T12:52:34;7.78;76.39
68977;SHT31;56029;52.568;13.588;2024-03-06T12:55:00;7.85;77.08
68977;SHT31;56029;52.568;13.588;2024-03-06T12:57:26;7.84;77.90
68977;SHT31;56029;52.568;13.588;2024-03-06T12:59:51;7.73;77.86
68977;SHT31;56029;52.568;13.588;2024-03-06T13:02:17;7.71;79.52
68977;SHT31;56029;52.568;13.588;2024-03-06T13:04:42;7.63;78.72
68977;SHT31;56029;52.568;13.588;2024-03-06T13:07:08;7.78;78.48
68977;SHT31;56029;52.568;13.588;2024-03-06T13:09:33;7.73;78.60
68977;SHT31;56029;52.568;13.588;2024-03-06T13:11:59;7.63;78.33
68977;SHT31;56029;52.568;13.588;2024-03-06T13:14:24;7.42;77.90
68977;SHT31;56029;52.568;13.588;2024-03-06T13:16:50;7.43;77.54
68977;SHT31;56029;52.568;13.588;2024-03-06T13:19:15;7.47;78.59
68977;SHT31;56029;52.568;13.588;2024-03-06T13:21:41;7.70;78.25
68977;SHT31;56029;52.568;13.588;2024-03-06T13:24:07;7.75;76.69
68977;SHT31;56029;52.568;13.588;2024-03-06T13:26:32;7.92;77.11
68977;SHT31;56029;52.568;13.588;2024-03-06T13:28:58;7.78;75.66
68977;SHT31;56029;52.568;13.588;2024-03-06T13:31:24;7.77;74.32
68977;SHT31;56029;52.568;13.588;2024-03-06T13:33:49;7.80;75.54
68977;SHT31;56029;52.568;13.588;2024-03-06T13:36:15;7.81;75.58
68977;SHT31;56029;52.568;13.588;2024-03-06T13:38:40;7.70;74.98
68977;SHT31;56029;52.568;13.588;2024-03-06T13:41:06;7.60;75.97
68977;SHT31;56029;52.568;13.588;2024-03-06T13:43:31;7.71;76.19
68977;SHT31;56029;52.568;13.588;2024-03-06T13:45:57;7.59;77.84
68977;SHT31;56029;52.568;13.588;2024-03-06T13:48:22;7.32;77.51
68977;SHT31;56029;52.568;13.588;2024-03-06T13:50:48;7.43;78.70
68977;SHT31;56029;52.568;13.588;2024-03-06T13:53:14;7.42;78.93
68977;SHT31;56029;52.568;13.588;2024-03-06T13:55:39;7.37;79.82
68977;SHT31;56029;52.568;13.588;2024-03-06T13:58:05;7.30;79.97
68977;SHT31;56029;52.568;13.588;2024-03-06T14:00:31;7.34;79.67
68977;SHT31;56029;52.568;13.588;2024-03-06T14:02:56;7.19;78.44
68977;SHT31;56029;52.568;13.588;2024-03-06T14:05:22;7.23;78.71
68977;SHT31;56029;52.568;13.588;2024-03-06T14:07:48;7.34;79.53
68977;SHT31;56029;52.568;13.588;2024-03-06T14:10:13;7.34;79.96
68977;SHT31;56029;52.568;13.588;2024-03-06T14:12:39;7.36;79.90
68977;SHT31;56029;52.568;13.588;2024-03-06T14:15:05;7.47;79.52
68977;SHT31;56029;52.568;13.588;2024-03-06T14:17:31;7.39;79.37
68977;SHT31;56029;52.568;13.588;2024-03-06T14:19:57;7.44;79.64
68977;SHT31;56029;52.568;13.588;2024-03-06T14:22:22;7.42;79.33
68977;SHT31;56029;52.568;13.588;2024-03-06T14:24:47;7.56;79.38
68977;SHT31;56029;52.568;13.588;2024-03-06T14:27:13;7.39;79.80
68977;SHT31;56029;52.568;13.588;2024-03-06T14:29:40;7.54;80.25
68977;SHT31;56029;52.568;13.588;2024-03-06T14:32:05;7.43;80.27
68977;SHT31;56029;52.568;13.588;2024-03-06T14:34:31;7.26;80.39
68977;SHT31;56029;52.568;13.588;2024-03-06T14:36:57;7.23;81.08
68977;SHT31;56029;52.568;13.588;2024-03-06T14:39:22;7.29;81.14
68977;SHT31;56029;52.568;13.588;2024-03-06T14:41:48;7.24;81.30
68977;SHT31;56029;52.568;13.588;2024-03-06T14:44:14;7.20;81.74
68977;SHT31;56029;52.568;13.588;2024-03-06T14:46:40;7.11;81.72
68977;SHT31;56029;52.568;13.588;2024-03-06T14:49:06;7.22;82.16
68977;SHT31;56029;52.568;13.588;2024-03-06T14:51:32;7.23;83.02
68977;SHT31;56029;52.568;13.588;2024-03-06T14:53:58;7.34;83.02
68977;SHT31;56029;52.568;13.588;2024-03-06T14:56:24;7.27;83.39
68977;SHT31;56029;52.568;13.588;2024-03-06T14:58:50;7.26;83.78
68977;SHT31;56029;52.568;13.588;2024-03-06T15:01:15;7.20;84.58
68977;SHT31;56029;52.568;13.588;2024-03-06T15:03:41;7.18;84.52
68977;SHT31;56029;52.568;13.588;2024-03-06T15:06:07;7.19;84.60
68977;SHT31;56029;52.568;13.588;2024-03-06T15:08:32;7.16;84.37
68977;SHT31;56029;52.568;13.588;2024-03-06T15:10:58;7.16;84.76
68977;SHT31;56029;52.568;13.588;2024-03-06T15:13:23;7.23;84.65
68977;SHT31;56029;52.568;13.588;2024-03-06T15:15:49;7.27;84.37
68977;SHT31;56029;52.568;13.588;2024-03-06T15:18:15;7.20;84.04
68977;SHT31;56029;52.568;13.588;2024-03-06T15:20:40;7.12;84.47
68977;SHT31;56029;52.568;13.588;2024-03-06T15:23:05;7.13;84.79